sensor_id;sensor_type;location;lat;lon;timestamp;temperature;humidity
15483;DHT22;7843;50.330;7.312;2022-12-07T00:01:46;2.80;99.90
15483;DHT22;7843;50.330;7.312;2022-12-07T00:04:15;2.90;99.90
15483;DHT22;7843;50.330;7.312;2022-12-07T00:06:43;2.80;99.90
15483;DHT22;7843;50.330;7.312;2022-12-07T00:09:15;2.80;99.90
15483;DHT22;7843;50.330;7.312;2022-12-07T00:11:42;2.80;99.90
15483;DHT22;7843;50.330;7.312;2022-12-07T00:14:14;2.90;99.90
15483;DHT22;7843;50.330;7.312;2022-12-07T00:16:42;2.80;99.90
15483;DHT22;7843;50.330;7.312;2022-12-07T00:19:11;2.80;99.90
15483;DHT22;7843;50.330;7.312;2022-12-07T00:21:38;2.80;99.90
15483;DHT22;7843;50.330;7.312;2022-12-07T00:24:06;2.90;99.90
15483;DHT22;7843;50.330;7.312;2022-12-07T00:26:35;2.90;99.90
15483;DHT22;7843;50.330;7.312;2022-12-07T00:29:21;2.90;99.90
15483;DHT22;7843;50.330;7.312;2022-12-07T00:31:48;2.90;99.90
15483;DHT22;7843;50.330;7.312;2022-12-07T00:34:18;2.90;99.90
15483;DHT22;7843;50.330;7.312;2022-12-07T00:36:45;2.90;99.90
15483;DHT22;7843;50.330;7.312;2022-12-07T00:39:12;2.90;99.90
15483;DHT22;7843;50.330;7.312;2022-12-07T00:41:38;2.90;99.90
15483;DHT22;7843;50.330;7.312;2022-12-07T00:44:05;2.90;99.90
15483;DHT22;7843;50.330;7.312;2022-12-07T00:46:32;2.90;99.90
15483;DHT22;7843;50.330;7.312;2022-12-07T00:48:58;2.90;99.90
15483;DHT22;7843;50.330;7.312;2022-12-07T00:51:26;3.00;99.90
15483;DHT22;7843;50.330;7.312;2022-12-07T00:53:53;3.00;99.90
15483;DHT22;7843;50.330;7.312;2022-12-07T00:56:21;3.10;99.90
15483;DHT22;7843;50.330;7.312;2022-12-07T00:58:59;3.20;99.90
15483;DHT22;7843;50.330;7.312;2022-12-07T01:01:28;3.20;99.90
15483;DHT22;7843;50.330;7.312;2022-12-07T01:03:55;3.40;99.90
15483;DHT22;7843;50.330;7.312;2022-12-07T01:06:24;3.50;99.90
15483;DHT22;7843;50.330;7.312;2022-12-07T01:08:51;3.50;99.90
15483;DHT22;7843;50.330;7.312;2022-12-07T01:11:20;3.60;99.90
15483;DHT22;7843;50.330;7.312;2022-12-07T01:13:49;3.60;99.90
15483;DHT22;7843;50.330;7.312;2022-12-07T01:16:17;3.60;99.90
15483;DHT22;7843;50.330;7.312;2022-12-07T01:18:47;3.60;99.90
15483;DHT22;7843;50.330;7.312;2022-12-07T01:21:17;3.60;99.90
15483;DHT22;7843;50.330;7.312;2022-12-07T01:23:44;3.60;99.90
15483;DHT22;7843;50.330;7.312;2022-12-07T01:26:13;3.60;99.90
15483;DHT22;7843;50.330;7.312;2022-12-07T01:28:40;3.50;99.90
15483;DHT22;7843;50.330;7.312;2022-12-07T01:31:13;3.50;99.90
15483;DHT22;7843;50.330;7.312;2022-12-07T01:33:43;3.50;99.90
15483;DHT22;7843;50.330;7.312;2022-12-07T01:38:42;3.50;99.90
15483;DHT22;7843;50.330;7.312;2022-12-07T01:41:09;3.50;99.90
15483;DHT22;7843;50.330;7.312;2022-12-07T01:43:36;3.50;99.90
15483;DHT22;7843;50.330;7.312;2022-12-07T01:46:04;3.50;99.90
15483;DHT22;7843;50.330;7.312;2022-12-07T01:48:38;3.50;99.90
15483;DHT22;7843;50.330;7.312;2022-12-07T01:51:10;3.50;99.90
15483;DHT22;7843;50.330;7.312;2022-12-07T01:53:40;3.60;99.90
15483;DHT22;7843;50.330;7.312;2022-12-07T01:56:11;3.60;99.90
15483;DHT22;7843;50.330;7.312;2022-12-07T01:58:40;3.60;99.90
15483;DHT22;7843;50.330;7.312;2022-12-07T02:01:07;3.60;99.90
15483;DHT22;7843;50.330;7.312;2022-12-07T02:03:40;3.60;99.90
15483;DHT22;7843;50.330;7.312;2022-12-07T02:06:07;3.60;99.90
15483;DHT22;7843;50.330;7.312;2022-12-07T02:08:34;3.60;99.90
15483;DHT22;7843;50.330;7.312;2022-12-07T02:11:03;3.60;99.90
15483;DHT22;7843;50.330;7.312;2022-12-07T02:13:32;3.50;99.90
15483;DHT22;7843;50.330;7.312;2022-12-07T02:18:38;3.60;99.90
15483;DHT22;7843;50.330;7.312;2022-12-07T02:21:31;3.60;99.90
15483;DHT22;7843;50.330;7.312;2022-12-07T02:35:21;3.60;99.90
15483;DHT22;7843;50.330;7.312;2022-12-07T02:38:16;3.60;99.90
15483;DHT22;7843;50.330;7.312;2022-12-07T02:43:43;3.50;99.90
15483;DHT22;7843;50.330;7.312;2022-12-07T02:46:14;3.50;99.90
15483;DHT22;7843;50.330;7.312;2022-12-07T02:48:43;3.50;99.90
15483;DHT22;7843;50.330;7.312;2022-12-07T02:51:10;3.50;99.90
15483;DHT22;7843;50.330;7.312;2022-12-07T02:53:40;3.50;99.90
15483;DHT22;7843;50.330;7.312;2022-12-07T02:56:26;3.60;99.90
15483;DHT22;7843;50.330;7.312;2022-12-07T03:06:56;3.50;99.90
15483;DHT22;7843;50.330;7.312;2022-12-07T03:09:51;3.60;99.90
15483;DHT22;7843;50.330;7.312;2022-12-07T03:12:24;3.50;99.90
15483;DHT22;7843;50.330;7.312;2022-12-07T03:15:08;3.60;99.90
15483;DHT22;7843;50.330;7.312;2022-12-07T03:17:40;3.50;99.90
15483;DHT22;7843;50.330;7.312;2022-12-07T03:20:09;3.50;99.90
15483;DHT22;7843;50.330;7.312;2022-12-07T03:22:40;3.50;99.90
15483;DHT22;7843;50.330;7.312;2022-12-07T03:25:11;3.50;99.90
15483;DHT22;7843;50.330;7.312;2022-12-07T03:27:53;3.50;99.90
15483;DHT22;7843;50.330;7.312;2022-12-07T03:30:36;3.50;99.90
15483;DHT22;7843;50.330;7.312;2022-12-07T03:33:10;3.50;99.90
15483;DHT22;7843;50.330;7.312;2022-12-07T03:35:41;3.50;99.90
15483;DHT22;7843;50.330;7.312;2022-12-07T03:40:51;3.50;99.90
15483;DHT22;7843;50.330;7.312;2022-12-07T03:43:20;3.50;99.90
15483;DHT22;7843;50.330;7.312;2022-12-07T03:48:49;3.50;99.90
15483;DHT22;7843;50.330;7.312;2022-12-07T03:54:24;3.60;99.90
15483;DHT22;7843;50.330;7.312;2022-12-07T03:56:53;3.50;99.90
15483;DHT22;7843;50.330;7.312;2022-12-07T03:59:21;3.50;99.90
15483;DHT22;7843;50.330;7.312;2022-12-07T04:01:54;3.50;99.90
15483;DHT22;7843;50.330;7.312;2022-12-07T04:04:22;3.50;99.90
15483;DHT22;7843;50.330;7.312;2022-12-07T04:06:49;3.50;99.90
15483;DHT22;7843;50.330;7.312;2022-12-07T04:09:16;3.50;99.90
15483;DHT22;7843;50.330;7.312;2022-12-07T04:11:43;3.50;99.90
15483;DHT22;7843;50.330;7.312;2022-12-07T04:14:10;3.50;99.90
15483;DHT22;7843;50.330;7.312;2022-12-07T04:16:54;3.50;99.90
15483;DHT22;7843;50.330;7.312;2022-12-07T04:19:25;3.40;99.90
15483;DHT22;7843;50.330;7.312;2022-12-07T04:21:52;3.40;99.90
15483;DHT22;7843;50.330;7.312;2022-12-07T04:24:19;3.40;99.90
15483;DHT22;7843;50.330;7.312;2022-12-07T04:26:46;3.40;99.90
15483;DHT22;7843;50.330;7.312;2022-12-07T04:29:14;3.40;99.90
15483;DHT22;7843;50.330;7.312;2022-12-07T04:31:40;3.50;99.90
15483;DHT22;7843;50.330;7.312;2022-12-07T04:34:07;3.50;99.90
15483;DHT22;7843;50.330;7.312;2022-12-07T04:36:34;3.50;99.90
15483;DHT22;7843;50.330;7.312;2022-12-07T04:39:01;3.50;99.90
15483;DHT22;7843;50.330;7.312;2022-12-07T04:41:28;3.60;99.90
15483;DHT22;7843;50.330;7.312;2022-12-07T04:43:57;3.50;99.90
15483;DHT22;7843;50.330;7.312;2022-12-07T04:46:24;3.60;99.90
15483;DHT22;7843;50.330;7.312;2022-12-07T04:48:52;3.60;99.90
15483;DHT22;7843;50.330;7.312;2022-12-07T04:51:23;3.60;99.90
15483;DHT22;7843;50.330;7.312;2022-12-07T04:53:49;3.60;99.90
15483;DHT22;7843;50.330;7.312;2022-12-07T04:56:17;3.60;99.90
15483;DHT22;7843;50.330;7.312;2022-12-07T04:58:45;3.60;99.90
15483;DHT22;7843;50.330;7.312;2022-12-07T05:01:13;3.60;99.90
15483;DHT22;7843;50.330;7.312;2022-12-07T05:03:39;3.50;99.90
15483;DHT22;7843;50.330;7.312;2022-12-07T05:06:07;3.50;99.90
15483;DHT22;7843;50.330;7.312;2022-12-07T05:08:38;3.50;99.90
15483;DHT22;7843;50.330;7.312;2022-12-07T05:11:06;3.40;99.90
15483;DHT22;7843;50.330;7.312;2022-12-07T05:13:33;3.40;99.90
15483;DHT22;7843;50.330;7.312;2022-12-07T05:16:00;3.30;99.90
15483;DHT22;7843;50.330;7.312;2022-12-07T05:18:27;3.30;99.90
15483;DHT22;7843;50.330;7.312;2022-12-07T05:20:53;3.30;99.90
15483;DHT22;7843;50.330;7.312;2022-12-07T05:23:20;3.30;99.90
15483;DHT22;7843;50.330;7.312;2022-12-07T05:25:47;3.20;99.90
15483;DHT22;7843;50.330;7.312;2022-12-07T05:28:13;3.20;99.90
15483;DHT22;7843;50.330;7.312;2022-12-07T05:30:40;3.20;99.90
15483;DHT22;7843;50.330;7.312;2022-12-07T05:33:07;3.20;99.90
15483;DHT22;7843;50.330;7.312;2022-12-07T05:35:33;3.20;99.90
15483;DHT22;7843;50.330;7.312;2022-12-07T05:38:00;3.20;99.90
15483;DHT22;7843;50.330;7.312;2022-12-07T05:40:27;3.20;99.90
15483;DHT22;7843;50.330;7.312;2022-12-07T05:42:57;3.20;99.90
15483;DHT22;7843;50.330;7.312;2022-12-07T05:45:26;3.20;99.90
15483;DHT22;7843;50.330;7.312;2022-12-07T05:47:53;3.10;99.90
15483;DHT22;7843;50.330;7.312;2022-12-07T05:50:20;3.10;99.90
15483;DHT22;7843;50.330;7.312;2022-12-07T05:52:46;3.10;99.90
15483;DHT22;7843;50.330;7.312;2022-12-07T05:55:13;3.10;99.90
15483;DHT22;7843;50.330;7.312;2022-12-07T05:57:40;3.00;99.90
15483;DHT22;7843;50.330;7.312;2022-12-07T06:00:26;3.00;99.90
15483;DHT22;7843;50.330;7.312;2022-12-07T06:02:53;2.90;99.90
15483;DHT22;7843;50.330;7.312;2022-12-07T06:05:19;2.90;99.90
15483;DHT22;7843;50.330;7.312;2022-12-07T06:07:46;3.00;99.90
15483;DHT22;7843;50.330;7.312;2022-12-07T06:10:13;2.90;99.90
15483;DHT22;7843;50.330;7.312;2022-12-07T06:12:40;2.90;99.90
15483;DHT22;7843;50.330;7.312;2022-12-07T06:15:09;2.80;99.90
15483;DHT22;7843;50.330;7.312;2022-12-07T06:17:36;2.80;99.90
15483;DHT22;7843;50.330;7.312;2022-12-07T06:20:04;2.70;99.90
15483;DHT22;7843;50.330;7.312;2022-12-07T06:22:30;2.70;99.90
15483;DHT22;7843;50.330;7.312;2022-12-07T06:24:57;2.60;99.90
15483;DHT22;7843;50.330;7.312;2022-12-07T06:27:24;2.50;99.90
15483;DHT22;7843;50.330;7.312;2022-12-07T06:29:50;2.50;99.90
15483;DHT22;7843;50.330;7.312;2022-12-07T06:32:17;2.40;99.90
15483;DHT22;7843;50.330;7.312;2022-12-07T06:34:44;2.40;99.90
15483;DHT22;7843;50.330;7.312;2022-12-07T06:37:10;2.30;99.90
15483;DHT22;7843;50.330;7.312;2022-12-07T06:39:37;2.30;99.90
15483;DHT22;7843;50.330;7.312;2022-12-07T06:42:04;2.20;99.90
15483;DHT22;7843;50.330;7.312;2022-12-07T06:44:31;2.30;99.90
15483;DHT22;7843;50.330;7.312;2022-12-07T06:46:58;2.30;99.90
15483;DHT22;7843;50.330;7.312;2022-12-07T06:49:38;2.30;99.90
15483;DHT22;7843;50.330;7.312;2022-12-07T06:52:04;2.20;99.90
15483;DHT22;7843;50.330;7.312;2022-12-07T06:54:32;2.20;99.90
15483;DHT22;7843;50.330;7.312;2022-12-07T06:56:58;2.10;99.90
15483;DHT22;7843;50.330;7.312;2022-12-07T06:59:25;2.00;99.90
15483;DHT22;7843;50.330;7.312;2022-12-07T07:01:52;1.90;99.90
15483;DHT22;7843;50.330;7.312;2022-12-07T07:04:18;1.80;99.90
15483;DHT22;7843;50.330;7.312;2022-12-07T07:06:45;1.70;99.90
15483;DHT22;7843;50.330;7.312;2022-12-07T07:09:12;1.70;99.90
15483;DHT22;7843;50.330;7.312;2022-12-07T07:11:39;1.70;99.90
15483;DHT22;7843;50.330;7.312;2022-12-07T07:14:05;1.60;99.90
15483;DHT22;7843;50.330;7.312;2022-12-07T07:16:32;1.60;99.90
15483;DHT22;7843;50.330;7.312;2022-12-07T07:18:59;1.50;99.90
15483;DHT22;7843;50.330;7.312;2022-12-07T07:21:25;1.50;99.90
15483;DHT22;7843;50.330;7.312;2022-12-07T07:23:52;1.50;99.90
15483;DHT22;7843;50.330;7.312;2022-12-07T07:26:18;1.50;99.90
15483;DHT22;7843;50.330;7.312;2022-12-07T07:28:48;1.60;99.90
15483;DHT22;7843;50.330;7.312;2022-12-07T07:31:15;1.60;99.90
15483;DHT22;7843;50.330;7.312;2022-12-07T07:33:41;1.60;99.90
15483;DHT22;7843;50.330;7.312;2022-12-07T07:36:08;1.70;99.90
15483;DHT22;7843;50.330;7.312;2022-12-07T07:38:35;1.70;99.90
15483;DHT22;7843;50.330;7.312;2022-12-07T07:41:02;1.70;99.90
15483;DHT22;7843;50.330;7.312;2022-12-07T07:43:28;1.70;99.90
15483;DHT22;7843;50.330;7.312;2022-12-07T07:45:55;1.70;99.90
15483;DHT22;7843;50.330;7.312;2022-12-07T07:48:22;1.70;99.90
15483;DHT22;7843;50.330;7.312;2022-12-07T07:50:51;1.70;99.90
15483;DHT22;7843;50.330;7.312;2022-12-07T07:53:18;1.80;99.90
15483;DHT22;7843;50.330;7.312;2022-12-07T07:55:54;1.80;99.90
15483;DHT22;7843;50.330;7.312;2022-12-07T07:58:21;1.90;99.90
15483;DHT22;7843;50.330;7.312;2022-12-07T08:00:47;2.00;99.90
15483;DHT22;7843;50.330;7.312;2022-12-07T08:03:14;2.20;99.90
15483;DHT22;7843;50.330;7.312;2022-12-07T08:05:41;2.30;99.90
15483;DHT22;7843;50.330;7.312;2022-12-07T08:08:08;2.40;99.90
15483;DHT22;7843;50.330;7.312;2022-12-07T08:10:34;2.50;99.90
15483;DHT22;7843;50.330;7.312;2022-12-07T08:13:01;2.60;99.90
15483;DHT22;7843;50.330;7.312;2022-12-07T08:15:38;2.70;99.90
15483;DHT22;7843;50.330;7.312;2022-12-07T08:18:05;2.80;99.90
15483;DHT22;7843;50.330;7.312;2022-12-07T08:20:32;2.80;99.90
15483;DHT22;7843;50.330;7.312;2022-12-07T08:23:00;2.90;99.90
15483;DHT22;7843;50.330;7.312;2022-12-07T08:25:27;3.00;99.90
15483;DHT22;7843;50.330;7.312;2022-12-07T08:27:54;3.00;99.90
15483;DHT22;7843;50.330;7.312;2022-12-07T08:30:20;3.10;99.90
15483;DHT22;7843;50.330;7.312;2022-12-07T08:32:48;3.10;99.90
15483;DHT22;7843;50.330;7.312;2022-12-07T08:35:15;3.20;99.90
15483;DHT22;7843;50.330;7.312;2022-12-07T08:37:42;3.10;99.90
15483;DHT22;7843;50.330;7.312;2022-12-07T08:40:11;3.10;99.90
15483;DHT22;7843;50.330;7.312;2022-12-07T08:42:48;3.10;99.90
15483;DHT22;7843;50.330;7.312;2022-12-07T08:45:16;3.20;99.90
15483;DHT22;7843;50.330;7.312;2022-12-07T08:47:50;3.20;99.90
15483;DHT22;7843;50.330;7.312;2022-12-07T08:50:18;3.20;99.90
15483;DHT22;7843;50.330;7.312;2022-12-07T08:52:49;3.20;99.90
15483;DHT22;7843;50.330;7.312;2022-12-07T08:55:17;3.20;99.90
15483;DHT22;7843;50.330;7.312;2022-12-07T08:57:44;3.20;99.90
15483;DHT22;7843;50.330;7.312;2022-12-07T09:00:11;3.20;99.90
15483;DHT22;7843;50.330;7.312;2022-12-07T09:02:38;3.30;99.90
15483;DHT22;7843;50.330;7.312;2022-12-07T09:05:05;3.30;99.90
15483;DHT22;7843;50.330;7.312;2022-12-07T09:07:34;3.30;99.90
15483;DHT22;7843;50.330;7.312;2022-12-07T09:10:01;3.40;99.90
15483;DHT22;7843;50.330;7.312;2022-12-07T09:12:28;3.50;99.90
15483;DHT22;7843;50.330;7.312;2022-12-07T09:14:54;3.50;99.90
15483;DHT22;7843;50.330;7.312;2022-12-07T09:17:21;3.60;99.90
15483;DHT22;7843;50.330;7.312;2022-12-07T09:19:48;3.70;99.90
15483;DHT22;7843;50.330;7.312;2022-12-07T09:22:14;3.80;99.90
15483;DHT22;7843;50.330;7.312;2022-12-07T09:24:41;4.00;99.90
15483;DHT22;7843;50.330;7.312;2022-12-07T09:27:08;4.00;99.90
15483;DHT22;7843;50.330;7.312;2022-12-07T09:29:34;4.10;99.90
15483;DHT22;7843;50.330;7.312;2022-12-07T09:32:01;4.20;99.90
15483;DHT22;7843;50.330;7.312;2022-12-07T09:34:32;4.30;99.90
15483;DHT22;7843;50.330;7.312;2022-12-07T09:37:00;4.40;99.90
15483;DHT22;7843;50.330;7.312;2022-12-07T09:39:28;4.50;99.90
15483;DHT22;7843;50.330;7.312;2022-12-07T09:41:54;4.60;99.90
15483;DHT22;7843;50.330;7.312;2022-12-07T09:44:25;4.70;99.90
15483;DHT22;7843;50.330;7.312;2022-12-07T09:46:52;4.80;99.90
15483;DHT22;7843;50.330;7.312;2022-12-07T09:49:21;4.90;99.90
15483;DHT22;7843;50.330;7.312;2022-12-07T09:52:03;4.90;99.90
15483;DHT22;7843;50.330;7.312;2022-12-07T09:54:46;5.00;99.90
15483;DHT22;7843;50.330;7.312;2022-12-07T09:57:14;5.00;99.90
15483;DHT22;7843;50.330;7.312;2022-12-07T09:59:41;5.10;99.90
15483;DHT22;7843;50.330;7.312;2022-12-07T10:04:50;5.20;99.90
15483;DHT22;7843;50.330;7.312;2022-12-07T10:07:17;5.20;99.90
15483;DHT22;7843;50.330;7.312;2022-12-07T10:09:44;5.30;99.90
15483;DHT22;7843;50.330;7.312;2022-12-07T10:12:12;5.40;99.90
15483;DHT22;7843;50.330;7.312;2022-12-07T10:15:04;5.50;99.90
15483;DHT22;7843;50.330;7.312;2022-12-07T10:17:38;5.60;99.90
15483;DHT22;7843;50.330;7.312;2022-12-07T10:20:21;5.50;99.90
15483;DHT22;7843;50.330;7.312;2022-12-07T10:23:00;5.40;99.90
15483;DHT22;7843;50.330;7.312;2022-12-07T10:25:29;5.30;99.90
15483;DHT22;7843;50.330;7.312;2022-12-07T10:28:11;5.30;99.90
15483;DHT22;7843;50.330;7.312;2022-12-07T10:30:52;5.20;99.90
15483;DHT22;7843;50.330;7.312;2022-12-07T10:33:48;5.30;99.90
15483;DHT22;7843;50.330;7.312;2022-12-07T10:36:38;5.40;99.90
15483;DHT22;7843;50.330;7.312;2022-12-07T10:39:17;5.50;99.90
15483;DHT22;7843;50.330;7.312;2022-12-07T10:41:58;5.70;99.90
15483;DHT22;7843;50.330;7.312;2022-12-07T10:44:27;5.90;99.90
15483;DHT22;7843;50.330;7.312;2022-12-07T10:52:45;5.80;99.90
15483;DHT22;7843;50.330;7.312;2022-12-07T11:00:59;5.90;99.90
15483;DHT22;7843;50.330;7.312;2022-12-07T11:06:37;6.00;99.90
15483;DHT22;7843;50.330;7.312;2022-12-07T11:15:17;5.90;99.90
15483;DHT22;7843;50.330;7.312;2022-12-07T11:20:43;6.00;99.90
15483;DHT22;7843;50.330;7.312;2022-12-07T11:24:04;6.00;99.90
15483;DHT22;7843;50.330;7.312;2022-12-07T11:35:14;5.70;99.10
15483;DHT22;7843;50.330;7.312;2022-12-07T11:37:46;5.60;99.60
15483;DHT22;7843;50.330;7.312;2022-12-07T11:40:34;5.50;99.70
15483;DHT22;7843;50.330;7.312;2022-12-07T11:43:15;5.50;99.50
15483;DHT22;7843;50.330;7.312;2022-12-07T11:45:47;5.60;99.70
15483;DHT22;7843;50.330;7.312;2022-12-07T11:48:37;5.60;99.60
15483;DHT22;7843;50.330;7.312;2022-12-07T11:51:08;5.60;99.90
15483;DHT22;7843;50.330;7.312;2022-12-07T11:53:42;5.60;99.90
15483;DHT22;7843;50.330;7.312;2022-12-07T11:56:16;5.70;99.90
15483;DHT22;7843;50.330;7.312;2022-12-07T12:06:41;5.90;97.90
15483;DHT22;7843;50.330;7.312;2022-12-07T12:09:17;5.90;98.50
15483;DHT22;7843;50.330;7.312;2022-12-07T12:15:33;5.80;98.80
15483;DHT22;7843;50.330;7.312;2022-12-07T12:18:25;5.90;98.90
15483;DHT22;7843;50.330;7.312;2022-12-07T12:21:08;6.10;99.20
15483;DHT22;7843;50.330;7.312;2022-12-07T12:26:55;6.40;98.80
15483;DHT22;7843;50.330;7.312;2022-12-07T12:29:36;6.40;99.30
15483;DHT22;7843;50.330;7.312;2022-12-07T12:32:14;6.10;98.50
15483;DHT22;7843;50.330;7.312;2022-12-07T12:34:58;6.00;98.60
15483;DHT22;7843;50.330;7.312;2022-12-07T12:37:47;5.80;99.10
15483;DHT22;7843;50.330;7.312;2022-12-07T12:42:58;5.50;99.30
15483;DHT22;7843;50.330;7.312;2022-12-07T12:45:32;5.30;99.50
15483;DHT22;7843;50.330;7.312;2022-12-07T12:50:36;5.40;99.90
15483;DHT22;7843;50.330;7.312;2022-12-07T12:53:24;5.60;99.90
15483;DHT22;7843;50.330;7.312;2022-12-07T12:58:36;5.90;99.80
15483;DHT22;7843;50.330;7.312;2022-12-07T13:03:55;6.00;99.40
15483;DHT22;7843;50.330;7.312;2022-12-07T13:08:54;6.10;98.80
15483;DHT22;7843;50.330;7.312;2022-12-07T13:11:37;6.10;98.80
15483;DHT22;7843;50.330;7.312;2022-12-07T13:17:04;5.90;98.20
15483;DHT22;7843;50.330;7.312;2022-12-07T13:25:12;6.00;97.90
15483;DHT22;7843;50.330;7.312;2022-12-07T13:27:57;6.00;96.80
15483;DHT22;7843;50.330;7.312;2022-12-07T13:30:28;6.00;96.70
15483;DHT22;7843;50.330;7.312;2022-12-07T13:32:58;6.00;97.10
15483;DHT22;7843;50.330;7.312;2022-12-07T13:35:33;5.90;96.10
15483;DHT22;7843;50.330;7.312;2022-12-07T13:38:29;5.90;96.20
15483;DHT22;7843;50.330;7.312;2022-12-07T13:41:12;5.90;96.60
15483;DHT22;7843;50.330;7.312;2022-12-07T13:43:44;5.80;98.00
15483;DHT22;7843;50.330;7.312;2022-12-07T13:46:11;5.70;98.60
15483;DHT22;7843;50.330;7.312;2022-12-07T13:48:48;5.60;98.80
15483;DHT22;7843;50.330;7.312;2022-12-07T13:51:26;5.50;98.90
15483;DHT22;7843;50.330;7.312;2022-12-07T13:53:55;5.30;98.60
15483;DHT22;7843;50.330;7.312;2022-12-07T13:56:33;5.20;99.20
15483;DHT22;7843;50.330;7.312;2022-12-07T13:59:01;5.10;99.50
15483;DHT22;7843;50.330;7.312;2022-12-07T14:01:30;5.00;99.90
15483;DHT22;7843;50.330;7.312;2022-12-07T14:04:17;4.80;99.90
15483;DHT22;7843;50.330;7.312;2022-12-07T14:06:51;4.50;99.90
15483;DHT22;7843;50.330;7.312;2022-12-07T14:09:21;4.40;99.90
15483;DHT22;7843;50.330;7.312;2022-12-07T14:11:50;4.40;99.90
15483;DHT22;7843;50.330;7.312;2022-12-07T14:14:25;4.40;99.90
15483;DHT22;7843;50.330;7.312;2022-12-07T14:17:11;4.50;99.90
15483;DHT22;7843;50.330;7.312;2022-12-07T14:22:27;4.60;99.90
15483;DHT22;7843;50.330;7.312;2022-12-07T14:25:09;4.60;99.90
15483;DHT22;7843;50.330;7.312;2022-12-07T14:27:39;4.60;99.90
15483;DHT22;7843;50.330;7.312;2022-12-07T14:30:17;4.50;99.90
15483;DHT22;7843;50.330;7.312;2022-12-07T14:32:48;4.50;99.90
15483;DHT22;7843;50.330;7.312;2022-12-07T14:35:17;4.50;99.90
15483;DHT22;7843;50.330;7.312;2022-12-07T14:37:46;4.30;99.90
15483;DHT22;7843;50.330;7.312;2022-12-07T14:40:15;4.20;99.90
15483;DHT22;7843;50.330;7.312;2022-12-07T14:42:43;4.20;99.90
15483;DHT22;7843;50.330;7.312;2022-12-07T14:45:14;4.20;99.90
15483;DHT22;7843;50.330;7.312;2022-12-07T14:47:41;4.10;99.90
15483;DHT22;7843;50.330;7.312;2022-12-07T14:50:29;4.10;99.90
15483;DHT22;7843;50.330;7.312;2022-12-07T14:52:59;4.20;99.90
15483;DHT22;7843;50.330;7.312;2022-12-07T14:55:47;4.10;99.90
15483;DHT22;7843;50.330;7.312;2022-12-07T14:58:15;4.10;99.90
15483;DHT22;7843;50.330;7.312;2022-12-07T15:00:43;4.00;99.90
15483;DHT22;7843;50.330;7.312;2022-12-07T15:03:10;4.00;99.90
15483;DHT22;7843;50.330;7.312;2022-12-07T15:05:40;4.00;99.90
15483;DHT22;7843;50.330;7.312;2022-12-07T15:08:09;4.00;99.90
15483;DHT22;7843;50.330;7.312;2022-12-07T15:10:36;4.00;99.90
15483;DHT22;7843;50.330;7.312;2022-12-07T15:13:05;4.00;99.90
15483;DHT22;7843;50.330;7.312;2022-12-07T15:15:52;4.00;99.90
15483;DHT22;7843;50.330;7.312;2022-12-07T15:18:20;4.00;99.90
15483;DHT22;7843;50.330;7.312;2022-12-07T15:20:47;3.90;99.90
15483;DHT22;7843;50.330;7.312;2022-12-07T15:23:14;3.90;99.90
15483;DHT22;7843;50.330;7.312;2022-12-07T15:25:45;3.90;99.90
15483;DHT22;7843;50.330;7.312;2022-12-07T15:28:13;3.80;99.90
15483;DHT22;7843;50.330;7.312;2022-12-07T15:30:41;3.80;99.90
15483;DHT22;7843;50.330;7.312;2022-12-07T15:33:09;3.80;99.90
15483;DHT22;7843;50.330;7.312;2022-12-07T15:35:40;3.70;99.90
15483;DHT22;7843;50.330;7.312;2022-12-07T15:38:07;3.70;99.90
15483;DHT22;7843;50.330;7.312;2022-12-07T15:40:34;3.70;99.90
15483;DHT22;7843;50.330;7.312;2022-12-07T15:43:02;3.70;99.90
15483;DHT22;7843;50.330;7.312;2022-12-07T15:45:29;3.70;99.90
15483;DHT22;7843;50.330;7.312;2022-12-07T15:47:56;3.60;99.90
15483;DHT22;7843;50.330;7.312;2022-12-07T15:50:42;3.60;99.90
15483;DHT22;7843;50.330;7.312;2022-12-07T15:53:09;3.60;99.90
15483;DHT22;7843;50.330;7.312;2022-12-07T15:55:39;3.60;99.90
15483;DHT22;7843;50.330;7.312;2022-12-07T15:58:06;3.60;99.90
15483;DHT22;7843;50.330;7.312;2022-12-07T16:00:33;3.60;99.90
15483;DHT22;7843;50.330;7.312;2022-12-07T16:03:00;3.60;99.90
15483;DHT22;7843;50.330;7.312;2022-12-07T16:05:26;3.50;99.90
15483;DHT22;7843;50.330;7.312;2022-12-07T16:07:53;3.50;99.90
15483;DHT22;7843;50.330;7.312;2022-12-07T16:10:20;3.50;99.90
15483;DHT22;7843;50.330;7.312;2022-12-07T16:12:46;3.50;99.90
15483;DHT22;7843;50.330;7.312;2022-12-07T16:15:13;3.40;99.90
15483;DHT22;7843;50.330;7.312;2022-12-07T16:17:40;3.40;99.90
15483;DHT22;7843;50.330;7.312;2022-12-07T16:20:07;3.40;99.90
15483;DHT22;7843;50.330;7.312;2022-12-07T16:22:34;3.40;99.90
15483;DHT22;7843;50.330;7.312;2022-12-07T16:25:01;3.50;99.90
15483;DHT22;7843;50.330;7.312;2022-12-07T16:27:28;3.50;99.90
15483;DHT22;7843;50.330;7.312;2022-12-07T16:29:54;3.40;99.90
15483;DHT22;7843;50.330;7.312;2022-12-07T16:32:21;3.40;99.90
15483;DHT22;7843;50.330;7.312;2022-12-07T16:34:48;3.40;99.90
15483;DHT22;7843;50.330;7.312;2022-12-07T16:37:14;3.40;99.90
15483;DHT22;7843;50.330;7.312;2022-12-07T16:39:41;3.40;99.90
15483;DHT22;7843;50.330;7.312;2022-12-07T16:42:07;3.40;99.90
15483;DHT22;7843;50.330;7.312;2022-12-07T16:44:34;3.50;99.90
15483;DHT22;7843;50.330;7.312;2022-12-07T16:47:01;3.50;99.90
15483;DHT22;7843;50.330;7.312;2022-12-07T16:49:27;3.50;99.90
15483;DHT22;7843;50.330;7.312;2022-12-07T16:51:54;3.50;99.90
15483;DHT22;7843;50.330;7.312;2022-12-07T16:54:35;3.50;99.90
15483;DHT22;7843;50.330;7.312;2022-12-07T16:57:02;3.50;99.90
15483;DHT22;7843;50.330;7.312;2022-12-07T16:59:29;3.50;99.90
15483;DHT22;7843;50.330;7.312;2022-12-07T17:01:55;3.50;99.90
15483;DHT22;7843;50.330;7.312;2022-12-07T17:04:22;3.50;99.90
15483;DHT22;7843;50.330;7.312;2022-12-07T17:06:49;3.50;99.90
15483;DHT22;7843;50.330;7.312;2022-12-07T17:09:15;3.50;99.90
15483;DHT22;7843;50.330;7.312;2022-12-07T17:11:46;3.50;99.90
15483;DHT22;7843;50.330;7.312;2022-12-07T17:14:13;3.50;99.90
15483;DHT22;7843;50.330;7.312;2022-12-07T17:16:58;3.50;99.90
15483;DHT22;7843;50.330;7.312;2022-12-07T17:19:27;3.50;99.90
15483;DHT22;7843;50.330;7.312;2022-12-07T17:21:54;3.50;99.90
15483;DHT22;7843;50.330;7.312;2022-12-07T17:24:21;3.40;99.90
15483;DHT22;7843;50.330;7.312;2022-12-07T17:26:48;3.40;99.90
15483;DHT22;7843;50.330;7.312;2022-12-07T17:29:16;3.40;99.90
15483;DHT22;7843;50.330;7.312;2022-12-07T17:31:45;3.40;99.90
15483;DHT22;7843;50.330;7.312;2022-12-07T17:34:16;3.40;99.90
15483;DHT22;7843;50.330;7.312;2022-12-07T17:36:43;3.40;99.90
15483;DHT22;7843;50.330;7.312;2022-12-07T17:39:17;3.30;99.90
15483;DHT22;7843;50.330;7.312;2022-12-07T17:41:44;3.30;99.90
15483;DHT22;7843;50.330;7.312;2022-12-07T17:44:29;3.30;99.90
15483;DHT22;7843;50.330;7.312;2022-12-07T17:46:57;3.30;99.90
15483;DHT22;7843;50.330;7.312;2022-12-07T17:49:25;3.30;99.90
15483;DHT22;7843;50.330;7.312;2022-12-07T17:51:53;3.30;99.90
15483;DHT22;7843;50.330;7.312;2022-12-07T17:54:38;3.30;99.90
15483;DHT22;7843;50.330;7.312;2022-12-07T17:57:05;3.30;99.90
15483;DHT22;7843;50.330;7.312;2022-12-07T17:59:32;3.20;99.90
15483;DHT22;7843;50.330;7.312;2022-12-07T18:01:59;3.20;99.90
15483;DHT22;7843;50.330;7.312;2022-12-07T18:04:25;3.20;99.90
15483;DHT22;7843;50.330;7.312;2022-12-07T18:06:52;3.20;99.90
15483;DHT22;7843;50.330;7.312;2022-12-07T18:09:19;3.20;99.90
15483;DHT22;7843;50.330;7.312;2022-12-07T18:11:47;3.20;99.90
15483;DHT22;7843;50.330;7.312;2022-12-07T18:14:14;3.20;99.90